createdAt,value
2023-02-23T00:01:55.908Z,7.30
2023-02-23T00:04:24.253Z,6.35
2023-02-23T00:06:52.460Z,6.93
2023-02-23T00:09:25.315Z,7.20
2023-02-23T00:11:54.674Z,8.02
2023-02-23T00:14:27.439Z,7.38
2023-02-23T00:16:55.957Z,6.82
2023-02-23T00:19:25.057Z,6.70
2023-02-23T00:21:53.732Z,6.88
2023-02-23T00:24:21.272Z,6.95
2023-02-23T00:26:51.390Z,6.70
2023-02-23T00:29:23.607Z,6.70
2023-02-23T00:31:52.462Z,6.82
2023-02-23T00:34:21.371Z,6.78
2023-02-23T00:36:56.807Z,7.18
2023-02-23T00:39:29.452Z,6.85
2023-02-23T00:42:03.020Z,7.10
2023-02-23T00:44:30.441Z,6.75
2023-02-23T00:46:57.562Z,6.70
2023-02-23T00:49:24.755Z,7.30
2023-02-23T00:51:55.124Z,6.23
2023-02-23T00:54:22.254Z,7.38
2023-02-23T00:56:50.120Z,6.63
2023-02-23T00:59:17.466Z,6.70
2023-02-23T01:01:45.211Z,7.70
2023-02-23T01:04:13.441Z,6.80
2023-02-23T01:06:41.826Z,6.93
2023-02-23T01:09:11.870Z,6.05
2023-02-23T01:11:39.068Z,7.00
2023-02-23T01:14:06.271Z,6.88
2023-02-23T01:16:35.489Z,7.35
2023-02-23T01:19:04.624Z,6.22
2023-02-23T01:21:34.500Z,6.93
2023-02-23T01:24:02.461Z,7.40
2023-02-23T01:26:35.226Z,6.93
2023-02-23T01:29:14.780Z,7.18
2023-02-23T01:31:46.824Z,6.10
2023-02-23T01:34:19.249Z,6.72
2023-02-23T01:36:46.363Z,7.60
2023-02-23T01:39:20.115Z,7.20
2023-02-23T01:41:47.410Z,7.97
2023-02-23T01:44:15.296Z,7.20
2023-02-23T01:46:45.537Z,7.25
2023-02-23T01:49:20.285Z,7.32
2023-02-23T01:51:52.819Z,8.15
2023-02-23T01:54:24.492Z,7.50
2023-02-23T01:56:58.538Z,7.05
2023-02-23T01:59:55.022Z,7.10
2023-02-23T02:02:33.653Z,7.50
2023-02-23T02:05:05.391Z,8.05
2023-02-23T02:07:35.440Z,6.68
2023-02-23T02:10:11.990Z,8.40
2023-02-23T02:12:44.348Z,7.10
2023-02-23T02:15:17.634Z,7.18
2023-02-23T02:18:09.622Z,6.50
2023-02-23T02:21:12.529Z,6.47
2023-02-23T02:23:40.226Z,7.50
2023-02-23T02:26:31.806Z,7.95
2023-02-23T02:29:01.884Z,7.18
2023-02-23T02:31:55.193Z,7.70
2023-02-23T02:34:22.695Z,7.85
2023-02-23T02:37:14.556Z,6.77
2023-02-23T02:39:48.024Z,7.90
2023-02-23T02:42:15.343Z,7.75
2023-02-23T02:44:59.278Z,7.13
2023-02-23T02:47:34.574Z,8.45
2023-02-23T02:50:12.579Z,7.65
2023-02-23T02:53:04.199Z,7.57
2023-02-23T02:55:34.899Z,7.07
2023-02-23T02:58:07.896Z,7.45
2023-02-23T03:00:56.144Z,6.90
2023-02-23T03:03:53.352Z,7.22
2023-02-23T03:06:43.827Z,8.10
2023-02-23T03:09:32.552Z,7.60
2023-02-23T03:12:44.754Z,8.27
2023-02-23T03:15:48.022Z,6.80
2023-02-23T03:18:58.443Z,7.38
2023-02-23T03:21:52.674Z,6.53
2023-02-23T03:25:06.675Z,7.10
2023-02-23T03:28:05.942Z,7.00
2023-02-23T03:31:06.783Z,7.20
2023-02-23T03:34:14.475Z,7.18
2023-02-23T03:37:11.766Z,6.70
2023-02-23T03:40:10.679Z,6.23
2023-02-23T03:42:59.450Z,7.10
2023-02-23T03:45:46.446Z,6.57
2023-02-23T03:48:35.626Z,7.07
2023-02-23T03:51:26.040Z,7.13
2023-02-23T03:54:39.058Z,7.32
2023-02-23T03:57:28.591Z,6.57
2023-02-23T04:00:20.392Z,7.20
2023-02-23T04:03:10.828Z,5.63
2023-02-23T04:06:00.376Z,7.35
2023-02-23T04:08:52.971Z,6.47
2023-02-23T04:11:52.192Z,6.57
2023-02-23T04:14:29.458Z,6.57
2023-02-23T04:16:58.396Z,6.60
2023-02-23T04:19:29.550Z,7.07
2023-02-23T04:21:56.688Z,7.23
2023-02-23T04:24:23.806Z,7.13
2023-02-23T04:26:50.848Z,7.28
2023-02-23T04:29:17.888Z,7.35
2023-02-23T04:31:45.050Z,6.88
2023-02-23T04:34:12.105Z,7.90
2023-02-23T04:36:39.100Z,7.18
2023-02-23T04:39:06.075Z,6.55
2023-02-23T04:41:33.197Z,7.40
2023-02-23T04:44:00.249Z,6.95
2023-02-23T04:46:27.232Z,6.28
2023-02-23T04:48:54.166Z,7.35
2023-02-23T04:51:21.242Z,6.65
2023-02-23T04:53:48.465Z,7.40
2023-02-23T04:56:15.525Z,6.65
2023-02-23T04:58:42.721Z,6.47
2023-02-23T05:01:10.160Z,7.43
2023-02-23T05:03:37.176Z,7.22
2023-02-23T05:06:04.448Z,7.47
2023-02-23T05:08:31.512Z,7.38
2023-02-23T05:10:58.567Z,7.23
2023-02-23T05:13:25.655Z,8.02
2023-02-23T05:15:57.747Z,6.88
2023-02-23T05:18:26.489Z,8.13
2023-02-23T05:20:54.266Z,8.70
2023-02-23T05:23:21.977Z,7.95
2023-02-23T05:25:49.014Z,7.50
2023-02-23T05:28:16.063Z,7.90
2023-02-23T05:30:43.771Z,8.02
2023-02-23T05:33:10.969Z,7.63
2023-02-23T05:35:41.470Z,7.30
2023-02-23T05:38:08.498Z,8.10
2023-02-23T05:40:36.788Z,7.82
2023-02-23T05:43:03.799Z,7.65
2023-02-23T05:45:31.080Z,8.13
2023-02-23T05:47:58.204Z,7.30
2023-02-23T05:50:26.034Z,7.70
2023-02-23T05:52:54.005Z,7.15
2023-02-23T05:55:20.960Z,7.80
2023-02-23T05:57:48.017Z,7.47
2023-02-23T06:00:15.304Z,7.00
2023-02-23T06:02:42.464Z,7.40
2023-02-23T06:05:10.851Z,7.28
2023-02-23T06:07:38.089Z,7.63
2023-02-23T06:10:05.969Z,8.10
2023-02-23T06:12:33.054Z,6.87
2023-02-23T06:15:00.066Z,6.90
2023-02-23T06:17:27.155Z,7.43
2023-02-23T06:19:54.447Z,6.90
2023-02-23T06:22:21.506Z,7.30
2023-02-23T06:24:49.800Z,6.77
2023-02-23T06:27:16.804Z,8.48
2023-02-23T06:29:43.937Z,7.47
2023-02-23T06:32:10.999Z,6.60
2023-02-23T06:34:45.339Z,6.40
2023-02-23T06:37:12.533Z,7.80
2023-02-23T06:39:39.605Z,7.72
2023-02-23T06:42:06.657Z,7.22
2023-02-23T06:44:35.611Z,8.27
2023-02-23T06:47:05.901Z,8.32
2023-02-23T06:49:33.354Z,7.67
2023-02-23T06:52:00.596Z,8.65
2023-02-23T06:54:27.558Z,7.68
2023-02-23T06:56:55.846Z,7.65
2023-02-23T06:59:24.408Z,8.57
2023-02-23T07:01:51.814Z,7.77
2023-02-23T07:04:18.934Z,8.48
2023-02-23T07:06:45.904Z,9.55
2023-02-23T07:09:13.026Z,8.50
2023-02-23T07:11:41.808Z,8.73
2023-02-23T07:14:15.307Z,8.30
2023-02-23T07:16:45.361Z,7.97
2023-02-23T07:19:12.437Z,7.18
2023-02-23T07:21:39.429Z,7.93
2023-02-23T07:24:06.757Z,7.82
2023-02-23T07:26:33.863Z,7.60
2023-02-23T07:29:01.915Z,7.72
2023-02-23T07:31:29.454Z,7.85
2023-02-23T07:33:56.742Z,8.35
2023-02-23T07:36:24.765Z,7.82
2023-02-23T07:38:51.877Z,9.00
2023-02-23T07:41:19.333Z,9.98
2023-02-23T07:43:46.697Z,7.95
2023-02-23T07:46:15.611Z,9.35
2023-02-23T07:48:45.070Z,8.52
2023-02-23T07:51:15.974Z,7.60
2023-02-23T07:53:44.410Z,8.35
2023-02-23T07:56:12.545Z,8.13
2023-02-23T07:58:41.824Z,11.30
2023-02-23T08:01:10.180Z,8.15
2023-02-23T08:03:37.323Z,8.27
2023-02-23T08:06:04.616Z,8.55
2023-02-23T08:08:31.796Z,8.60
2023-02-23T08:11:03.572Z,8.80
2023-02-23T08:13:31.548Z,9.63
2023-02-23T08:15:59.614Z,8.23
2023-02-23T08:18:27.841Z,10.20
2023-02-23T08:21:02.189Z,8.75
2023-02-23T08:23:30.686Z,9.63
2023-02-23T08:25:59.765Z,9.63
2023-02-23T08:28:27.960Z,8.23
2023-02-23T08:30:55.361Z,10.70
2023-02-23T08:33:22.595Z,9.50
2023-02-23T08:35:49.626Z,9.73
2023-02-23T08:38:18.418Z,8.13
2023-02-23T08:40:45.627Z,8.70
2023-02-23T08:43:12.698Z,10.45
2023-02-23T08:45:39.769Z,8.75
2023-02-23T08:48:08.999Z,8.60
2023-02-23T08:50:36.149Z,8.25
2023-02-23T08:53:04.300Z,7.53
2023-02-23T08:55:32.701Z,9.52
2023-02-23T08:57:59.771Z,11.52
2023-02-23T09:00:26.949Z,9.90
2023-02-23T09:02:53.966Z,10.40
2023-02-23T09:05:21.150Z,10.70
2023-02-23T09:07:49.454Z,11.02
2023-02-23T09:10:20.217Z,10.90
2023-02-23T09:12:47.358Z,10.20
2023-02-23T09:15:14.396Z,9.75
2023-02-23T09:17:45.094Z,10.70
2023-02-23T09:20:15.905Z,9.88
2023-02-23T09:22:48.746Z,10.23
2023-02-23T09:25:22.916Z,10.50
2023-02-23T09:27:56.505Z,9.90
2023-02-23T09:30:23.791Z,9.93
2023-02-23T09:32:51.416Z,10.18
2023-02-23T09:35:21.116Z,10.27
2023-02-23T09:37:50.392Z,10.00
2023-02-23T09:40:22.316Z,9.52
2023-02-23T09:43:17.014Z,9.40
2023-02-23T09:45:55.218Z,10.43
2023-02-23T09:48:28.813Z,9.85
2023-02-23T09:51:01.414Z,9.88
2023-02-23T09:53:35.794Z,10.07
2023-02-23T09:56:11.897Z,10.30
2023-02-23T09:58:40.309Z,9.55
2023-02-23T10:01:19.838Z,9.25
2023-02-23T10:03:55.994Z,9.60
2023-02-23T10:06:23.419Z,9.20
2023-02-23T10:09:22.653Z,9.20
2023-02-23T10:12:00.359Z,8.73
2023-02-23T10:14:53.796Z,9.20
2023-02-23T10:17:36.429Z,8.25
2023-02-23T10:20:28.290Z,9.57
2023-02-23T10:23:01.689Z,9.67
2023-02-23T10:25:33.068Z,8.73
2023-02-23T10:28:01.715Z,9.35
2023-02-23T10:30:33.081Z,9.48
2023-02-23T10:33:11.626Z,10.13
2023-02-23T10:35:39.592Z,8.67
2023-02-23T10:38:08.671Z,8.88
2023-02-23T10:40:36.553Z,8.57
2023-02-23T10:43:03.821Z,8.20
2023-02-23T10:45:38.340Z,9.38
2023-02-23T10:48:09.231Z,9.13
2023-02-23T10:50:38.884Z,8.55
2023-02-23T10:53:28.125Z,9.25
2023-02-23T10:56:17.102Z,8.90
2023-02-23T10:58:56.436Z,9.07
2023-02-23T11:02:01.507Z,8.73
2023-02-23T11:04:35.255Z,8.98
2023-02-23T11:07:12.029Z,8.70
2023-02-23T11:09:47.031Z,8.93
2023-02-23T11:12:22.911Z,8.85
2023-02-23T11:14:51.832Z,7.73
2023-02-23T11:17:37.873Z,6.82
2023-02-23T11:20:23.197Z,7.95
2023-02-23T11:22:52.411Z,7.25
2023-02-23T11:25:29.710Z,7.32
2023-02-23T11:27:58.035Z,7.57
2023-02-23T11:30:39.878Z,7.28
2023-02-23T11:33:10.964Z,7.55
2023-02-23T11:35:39.058Z,7.07
2023-02-23T11:38:24.449Z,8.57
2023-02-23T11:41:07.437Z,7.40
2023-02-23T11:43:36.230Z,7.00
2023-02-23T11:46:04.218Z,8.40
2023-02-23T11:48:51.910Z,7.45
2023-02-23T11:51:35.196Z,7.85
2023-02-23T11:54:05.758Z,7.80
2023-02-23T11:56:35.625Z,8.00
2023-02-23T11:59:18.498Z,7.40
2023-02-23T12:01:50.144Z,6.70
2023-02-23T12:04:30.571Z,7.13
2023-02-23T12:07:32.105Z,7.70
2023-02-23T12:10:25.647Z,7.80
2023-02-23T12:13:08.163Z,6.82
2023-02-23T12:15:50.873Z,6.93
2023-02-23T12:18:17.957Z,6.75
2023-02-23T12:20:50.073Z,7.07
2023-02-23T12:23:24.848Z,7.32
2023-02-23T12:25:59.932Z,6.38
2023-02-23T12:28:38.472Z,6.80
2023-02-23T12:31:23.667Z,7.10
2023-02-23T12:34:04.263Z,6.93
2023-02-23T12:36:47.994Z,5.95
2023-02-23T12:39:57.892Z,5.97
2023-02-23T12:42:49.153Z,6.47
2023-02-23T12:45:34.106Z,6.75
2023-02-23T12:48:13.301Z,5.90
2023-02-23T12:50:53.111Z,5.80
2023-02-23T12:53:39.872Z,6.68
2023-02-23T12:56:37.849Z,5.55
2023-02-23T12:59:35.812Z,6.22
2023-02-23T13:02:44.036Z,6.23
2023-02-23T13:05:32.423Z,6.05
2023-02-23T13:08:24.720Z,7.15
2023-02-23T13:10:51.812Z,5.55
2023-02-23T13:13:24.644Z,5.45
2023-02-23T13:16:40.731Z,5.47
2023-02-23T13:19:20.943Z,5.30
2023-02-23T13:22:06.720Z,5.57
2023-02-23T13:24:47.469Z,5.03
2023-02-23T13:27:27.446Z,6.25
2023-02-23T13:29:56.877Z,5.70
2023-02-23T13:32:29.467Z,5.63
2023-02-23T13:35:05.633Z,6.28
2023-02-23T13:37:51.066Z,5.30
2023-02-23T13:40:25.280Z,5.20
2023-02-23T13:43:17.776Z,5.37
2023-02-23T13:46:04.667Z,5.03
2023-02-23T13:48:56.805Z,6.00
2023-02-23T13:51:47.539Z,5.45
2023-02-23T13:54:15.163Z,5.07
2023-02-23T13:56:59.268Z,6.27
2023-02-23T13:59:34.451Z,5.75
2023-02-23T14:02:07.355Z,5.80
2023-02-23T14:04:42.557Z,5.97
2023-02-23T14:07:09.708Z,6.85
2023-02-23T14:09:56.899Z,5.37
2023-02-23T14:12:25.460Z,5.90
2023-02-23T14:14:52.477Z,5.93
2023-02-23T14:17:19.476Z,6.68
2023-02-23T14:20:13.298Z,6.22
2023-02-23T14:23:19.693Z,5.80
2023-02-23T14:25:51.520Z,5.22
2023-02-23T14:28:36.593Z,5.88
2023-02-23T14:31:12.331Z,6.07
2023-02-23T14:33:42.627Z,5.90
2023-02-23T14:36:22.025Z,6.23
2023-02-23T14:39:15.803Z,6.85
2023-02-23T14:41:57.953Z,7.90
2023-02-23T14:44:36.639Z,6.38
2023-02-23T14:47:08.470Z,7.03
2023-02-23T14:49:40.780Z,6.33
2023-02-23T14:52:21.512Z,5.63
2023-02-23T14:54:52.168Z,6.20
2023-02-23T14:57:26.325Z,5.82
2023-02-23T15:00:06.555Z,5.97
2023-02-23T15:02:35.506Z,5.80
2023-02-23T15:05:16.528Z,6.80
2023-02-23T15:07:45.533Z,6.00
2023-02-23T15:10:22.675Z,6.20
2023-02-23T15:12:50.682Z,5.70
2023-02-23T15:15:24.439Z,5.47
2023-02-23T15:17:55.387Z,6.45
2023-02-23T15:20:28.965Z,6.15
2023-02-23T15:22:59.374Z,6.97
2023-02-23T15:25:36.027Z,6.13
2023-02-23T15:28:26.654Z,5.93
2023-02-23T15:31:01.094Z,5.85
2023-02-23T15:33:31.101Z,7.22
2023-02-23T15:36:19.846Z,6.20
2023-02-23T15:38:50.747Z,6.60
2023-02-23T15:41:36.730Z,6.37
2023-02-23T15:44:27.503Z,6.53
2023-02-23T15:47:03.062Z,7.18
2023-02-23T15:49:35.932Z,6.05
2023-02-23T15:52:07.176Z,5.63
2023-02-23T15:55:00.505Z,5.43
2023-02-23T15:57:31.690Z,6.32
2023-02-23T16:00:02.088Z,6.25
2023-02-23T16:02:31.040Z,6.15
2023-02-23T16:05:08.918Z,6.20
2023-02-23T16:07:40.714Z,6.13
2023-02-23T16:10:23.150Z,5.80
2023-02-23T16:12:54.248Z,6.55
2023-02-23T16:15:30.344Z,6.75
2023-02-23T16:18:03.782Z,5.88
2023-02-23T16:20:46.387Z,5.87
2023-02-23T16:23:44.765Z,6.05
2023-02-23T16:26:27.467Z,6.10
2023-02-23T16:28:57.981Z,6.65
2023-02-23T16:31:43.388Z,6.47
2023-02-23T16:34:27.191Z,6.20
2023-02-23T16:37:03.789Z,6.07
2023-02-23T16:39:34.372Z,6.45
2023-02-23T16:42:01.431Z,6.40
2023-02-23T16:44:41.396Z,6.45
2023-02-23T16:47:20.577Z,6.33
2023-02-23T16:49:48.158Z,6.85
2023-02-23T16:52:22.538Z,6.30
2023-02-23T16:54:55.346Z,6.32
2023-02-23T16:57:29.784Z,7.18
2023-02-23T16:59:57.689Z,6.77
2023-02-23T17:02:24.857Z,5.80
2023-02-23T17:04:52.909Z,7.10
2023-02-23T17:07:22.881Z,6.80
2023-02-23T17:09:51.004Z,6.30
2023-02-23T17:12:20.133Z,7.23
2023-02-23T17:14:50.674Z,7.55
2023-02-23T17:17:19.464Z,7.20
2023-02-23T17:19:46.886Z,7.50
2023-02-23T17:22:14.711Z,7.05
2023-02-23T17:24:42.773Z,7.03
2023-02-23T17:27:10.362Z,6.63
2023-02-23T17:29:40.760Z,7.55
2023-02-23T17:32:11.460Z,7.32
2023-02-23T17:34:39.446Z,7.60
2023-02-23T17:37:08.080Z,7.80
2023-02-23T17:39:37.540Z,7.05
2023-02-23T17:42:04.881Z,7.22
2023-02-23T17:44:31.882Z,7.32
2023-02-23T17:46:58.967Z,7.47
2023-02-23T17:49:26.141Z,7.30
2023-02-23T17:51:53.331Z,7.85
2023-02-23T17:54:20.392Z,8.10
2023-02-23T17:56:47.476Z,7.63
2023-02-23T17:59:14.704Z,7.72
2023-02-23T18:01:41.704Z,7.60
2023-02-23T18:04:08.819Z,8.00
2023-02-23T18:06:35.838Z,7.00
2023-02-23T18:09:06.120Z,7.55
2023-02-23T18:11:34.864Z,7.45
2023-02-23T18:14:04.557Z,8.00
2023-02-23T18:16:33.490Z,7.60
2023-02-23T18:19:00.774Z,7.68
2023-02-23T18:21:31.111Z,7.47
2023-02-23T18:23:58.518Z,6.50
2023-02-23T18:26:25.849Z,7.40
2023-02-23T18:28:54.405Z,7.47
2023-02-23T18:31:25.542Z,7.18
2023-02-23T18:33:53.360Z,7.43
2023-02-23T18:36:23.392Z,8.40
2023-02-23T18:38:53.397Z,8.07
2023-02-23T18:41:21.410Z,7.45
2023-02-23T18:43:49.644Z,6.95
2023-02-23T18:46:17.423Z,7.63
2023-02-23T18:48:45.260Z,7.13
2023-02-23T18:51:17.652Z,6.97
2023-02-23T18:53:45.945Z,7.68
2023-02-23T18:56:16.304Z,7.40
2023-02-23T18:58:45.735Z,6.72
2023-02-23T19:01:18.277Z,7.30
2023-02-23T19:03:46.840Z,6.90
2023-02-23T19:06:16.574Z,7.38
2023-02-23T19:08:44.874Z,6.80
2023-02-23T19:11:12.302Z,7.80
2023-02-23T19:13:39.735Z,6.65
2023-02-23T19:16:08.357Z,7.90
2023-02-23T19:18:36.426Z,7.68
2023-02-23T19:21:04.591Z,7.30
2023-02-23T19:23:31.844Z,7.50
2023-02-23T19:26:02.497Z,8.00
2023-02-23T19:28:30.331Z,7.93
2023-02-23T19:31:09.016Z,8.35
2023-02-23T19:33:39.899Z,8.02
2023-02-23T19:36:09.175Z,7.15
2023-02-23T19:38:36.887Z,8.85
2023-02-23T19:41:11.356Z,8.00
2023-02-23T19:43:39.151Z,8.25
2023-02-23T19:46:08.752Z,7.53
2023-02-23T19:48:36.821Z,7.05
2023-02-23T19:51:04.546Z,7.93
2023-02-23T19:53:32.355Z,7.93
2023-02-23T19:56:01.081Z,7.40
2023-02-23T19:58:28.280Z,7.70
2023-02-23T20:00:57.601Z,8.07
2023-02-23T20:03:28.643Z,8.02
2023-02-23T20:05:56.646Z,8.07
2023-02-23T20:08:24.536Z,9.05
2023-02-23T20:10:52.250Z,8.40
2023-02-23T20:13:21.507Z,8.45
2023-02-23T20:15:48.558Z,7.00
2023-02-23T20:18:15.629Z,7.80
2023-02-23T20:20:42.870Z,7.25
2023-02-23T20:23:09.960Z,7.50
2023-02-23T20:25:37.022Z,7.55
2023-02-23T20:28:04.732Z,6.97
2023-02-23T20:30:31.867Z,7.37
2023-02-23T20:32:59.031Z,7.28
2023-02-23T20:35:26.426Z,7.95
2023-02-23T20:37:53.770Z,7.78
2023-02-23T20:40:23.260Z,7.38
2023-02-23T20:42:51.729Z,6.97
2023-02-23T20:45:21.684Z,7.38
2023-02-23T20:47:53.215Z,7.57
2023-02-23T20:50:22.425Z,8.00
2023-02-23T20:52:49.854Z,9.50
2023-02-23T20:55:18.906Z,7.93
2023-02-23T20:57:48.177Z,7.95
2023-02-23T21:00:23.344Z,7.15
2023-02-23T21:02:55.861Z,7.63
2023-02-23T21:05:25.090Z,7.25
2023-02-23T21:07:52.687Z,7.50
2023-02-23T21:10:20.621Z,7.07
2023-02-23T21:12:47.685Z,7.80
2023-02-23T21:15:15.191Z,7.95
2023-02-23T21:17:42.301Z,8.00
2023-02-23T21:20:12.566Z,8.20
2023-02-23T21:22:39.743Z,7.35
2023-02-23T21:25:10.555Z,8.73
2023-02-23T21:27:38.604Z,7.32
2023-02-23T21:30:06.387Z,9.90
2023-02-23T21:32:41.156Z,10.77
2023-02-23T21:35:10.641Z,8.57
2023-02-23T21:37:39.131Z,8.07
2023-02-23T21:40:09.702Z,9.13
2023-02-23T21:42:37.842Z,9.70
2023-02-23T21:45:05.304Z,8.17
2023-02-23T21:47:35.574Z,8.60
2023-02-23T21:50:03.351Z,8.75
2023-02-23T21:52:33.931Z,8.82
2023-02-23T21:55:03.887Z,8.93
2023-02-23T21:57:33.429Z,9.67
2023-02-23T22:00:00.669Z,8.93
2023-02-23T22:02:30.684Z,8.80
2023-02-23T22:04:58.272Z,8.50
2023-02-23T22:07:29.292Z,8.70
2023-02-23T22:09:56.409Z,8.97
2023-02-23T22:12:23.419Z,8.90
2023-02-23T22:14:50.461Z,8.15
2023-02-23T22:17:19.356Z,8.05
2023-02-23T22:19:49.724Z,8.05
2023-02-23T22:22:20.165Z,7.90
2023-02-23T22:24:50.464Z,8.80
2023-02-23T22:27:17.478Z,6.88
2023-02-23T22:29:44.454Z,7.60
2023-02-23T22:32:11.686Z,7.93
2023-02-23T22:34:39.069Z,7.30
2023-02-23T22:37:06.072Z,7.82
2023-02-23T22:39:33.423Z,7.30
2023-02-23T22:42:09.332Z,7.80
2023-02-23T22:44:39.086Z,6.82
2023-02-23T22:47:07.497Z,7.23
2023-02-23T22:49:34.782Z,7.20
2023-02-23T22:52:01.829Z,7.60
2023-02-23T22:54:29.198Z,7.55
2023-02-23T22:56:56.170Z,7.07
2023-02-23T22:59:23.228Z,7.20
2023-02-23T23:01:50.657Z,7.57
2023-02-23T23:04:19.654Z,7.47
2023-02-23T23:06:46.717Z,7.10
2023-02-23T23:09:15.038Z,7.40
2023-02-23T23:11:42.843Z,6.90
2023-02-23T23:14:14.064Z,7.13
2023-02-23T23:16:52.118Z,8.00
2023-02-23T23:19:24.492Z,8.48
2023-02-23T23:21:55.455Z,8.43
2023-02-23T23:24:24.503Z,8.87
2023-02-23T23:26:59.549Z,8.80
2023-02-23T23:29:30.034Z,9.13
2023-02-23T23:31:57.469Z,8.52
2023-02-23T23:34:25.430Z,8.38
2023-02-23T23:36:55.626Z,8.20
2023-02-23T23:39:26.088Z,8.25
2023-02-23T23:41:54.125Z,8.02
2023-02-23T23:44:23.928Z,7.97
2023-02-23T23:46:51.194Z,7.57
2023-02-23T23:49:21.256Z,7.47
2023-02-23T23:51:50.917Z,7.05
2023-02-23T23:54:24.395Z,5.38
2023-02-23T23:56:51.521Z,6.15
2023-02-23T23:59:21.549Z,7.40
